createdAt,value
2022-10-31T00:02:01.479Z,17.28
2022-10-31T00:04:51.185Z,17.28
2022-10-31T00:07:38.890Z,17.27
2022-10-31T00:10:30.550Z,17.27
2022-10-31T00:13:18.313Z,17.27
2022-10-31T00:16:06.257Z,17.26
2022-10-31T00:18:55.622Z,17.25
2022-10-31T00:21:43.396Z,17.21
2022-10-31T00:24:31.068Z,17.24
2022-10-31T00:27:19.969Z,17.23
2022-10-31T00:30:09.495Z,17.22
2022-10-31T00:32:57.384Z,17.20
2022-10-31T00:35:45.216Z,17.17
2022-10-31T00:38:33.357Z,17.20
2022-10-31T00:41:23.306Z,17.18
2022-10-31T00:44:12.102Z,17.14
2022-10-31T00:47:14.462Z,17.16
2022-10-31T00:50:02.104Z,17.14
2022-10-31T00:53:01.137Z,17.13
2022-10-31T00:55:59.593Z,17.10
2022-10-31T00:58:55.622Z,17.11
2022-10-31T01:02:03.165Z,17.09
2022-10-31T01:04:51.097Z,17.08
2022-10-31T01:07:42.506Z,17.07
2022-10-31T01:10:30.256Z,17.06
2022-10-31T01:13:17.888Z,17.04
2022-10-31T01:16:12.768Z,17.03
2022-10-31T01:19:02.123Z,17.02
2022-10-31T01:21:49.656Z,17.00
2022-10-31T01:24:38.275Z,17.00
2022-10-31T01:27:26.214Z,16.97
2022-10-31T01:30:14.632Z,16.96
2022-10-31T01:33:02.878Z,16.96
2022-10-31T01:35:57.414Z,16.94
2022-10-31T01:38:45.729Z,16.93
2022-10-31T01:41:37.876Z,16.92
2022-10-31T01:44:58.560Z,16.91
2022-10-31T01:47:49.473Z,16.90
2022-10-31T01:50:40.780Z,16.87
2022-10-31T01:53:29.671Z,16.87
2022-10-31T01:56:20.099Z,16.86
2022-10-31T01:59:13.758Z,16.85
2022-10-31T02:02:02.117Z,16.83
2022-10-31T02:04:50.709Z,16.82
2022-10-31T02:07:45.634Z,16.81
2022-10-31T02:10:36.627Z,16.82
2022-10-31T02:13:30.636Z,16.79
2022-10-31T02:16:19.256Z,16.78
2022-10-31T02:19:11.261Z,16.79
2022-10-31T02:22:07.540Z,16.77
2022-10-31T02:25:21.965Z,16.75
2022-10-31T02:28:53.458Z,16.72
2022-10-31T02:31:47.841Z,16.73
2022-10-31T02:34:46.574Z,16.69
2022-10-31T02:37:42.516Z,16.68
2022-10-31T02:40:35.476Z,16.68
2022-10-31T02:43:57.469Z,16.66
2022-10-31T02:46:54.046Z,16.65
2022-10-31T02:49:47.646Z,16.64
2022-10-31T02:52:37.903Z,16.64
2022-10-31T02:55:58.163Z,16.60
2022-10-31T02:58:52.137Z,16.61
2022-10-31T03:02:08.899Z,16.59
2022-10-31T03:05:21.921Z,16.58
2022-10-31T03:08:17.491Z,16.55
2022-10-31T03:11:07.827Z,16.53
2022-10-31T03:14:07.897Z,16.53
2022-10-31T03:17:02.133Z,16.51
2022-10-31T03:19:55.582Z,16.50
2022-10-31T03:22:44.669Z,16.49
2022-10-31T03:25:34.196Z,16.47
2022-10-31T03:28:35.454Z,16.46
2022-10-31T03:31:40.802Z,16.45
2022-10-31T03:34:41.872Z,16.43
2022-10-31T03:37:45.707Z,16.41
2022-10-31T03:40:48.437Z,16.42
2022-10-31T03:43:52.968Z,16.38
2022-10-31T03:50:25.675Z,16.35
2022-10-31T03:53:34.207Z,16.32
2022-10-31T03:56:39.448Z,16.31
2022-10-31T03:59:43.449Z,16.29
2022-10-31T04:02:41.463Z,16.28
2022-10-31T04:05:32.190Z,16.26
2022-10-31T04:08:26.865Z,16.25
2022-10-31T04:11:18.984Z,16.26
2022-10-31T04:14:15.585Z,16.24
2022-10-31T04:17:06.337Z,16.23
2022-10-31T04:19:57.837Z,16.22
2022-10-31T04:22:47.822Z,16.20
2022-10-31T04:25:35.622Z,16.18
2022-10-31T04:28:23.144Z,16.17
2022-10-31T04:31:13.291Z,16.17
2022-10-31T04:34:01.554Z,16.15
2022-10-31T04:36:49.359Z,16.15
2022-10-31T04:39:40.204Z,16.14
2022-10-31T04:42:51.216Z,16.11
2022-10-31T04:45:40.123Z,16.10
2022-10-31T04:48:27.985Z,16.11
2022-10-31T04:51:18.409Z,16.09
2022-10-31T04:54:06.779Z,16.07
2022-10-31T04:57:24.617Z,16.05
2022-10-31T05:00:15.422Z,16.04
2022-10-31T05:03:03.522Z,16.03
2022-10-31T05:05:51.270Z,16.02
2022-10-31T05:08:41.998Z,16.01
2022-10-31T05:11:30.862Z,16.01
2022-10-31T05:14:30.563Z,15.99
2022-10-31T05:17:57.714Z,15.95
2022-10-31T05:21:04.264Z,15.95
2022-10-31T05:24:09.002Z,15.92
2022-10-31T05:26:57.932Z,15.91
2022-10-31T05:29:47.184Z,15.89
2022-10-31T05:32:40.385Z,15.89
2022-10-31T05:35:51.120Z,15.88
2022-10-31T05:39:02.295Z,15.88
2022-10-31T05:41:57.505Z,15.86
2022-10-31T05:44:49.537Z,15.87
2022-10-31T05:47:57.169Z,15.83
2022-10-31T05:51:03.732Z,15.82
2022-10-31T05:53:51.235Z,15.83
2022-10-31T05:56:38.993Z,15.82
2022-10-31T05:59:26.716Z,15.81
2022-10-31T06:02:15.861Z,15.80
2022-10-31T06:05:33.371Z,15.80
2022-10-31T06:08:22.085Z,15.78
2022-10-31T06:11:10.648Z,15.79
2022-10-31T06:14:27.564Z,15.78
2022-10-31T06:17:23.529Z,15.79
2022-10-31T06:20:34.256Z,15.79
2022-10-31T06:23:26.227Z,15.78
2022-10-31T06:26:29.310Z,15.79
2022-10-31T06:29:16.669Z,15.79
2022-10-31T06:32:19.618Z,15.80
2022-10-31T06:35:08.713Z,15.80
2022-10-31T06:38:00.812Z,15.82
2022-10-31T06:40:59.902Z,15.83
2022-10-31T06:43:50.849Z,15.83
2022-10-31T06:46:52.185Z,15.84
2022-10-31T06:49:59.795Z,15.85
2022-10-31T06:53:01.320Z,15.85
2022-10-31T06:55:56.454Z,15.87
2022-10-31T07:00:20.358Z,15.89
2022-10-31T07:03:23.262Z,15.90
2022-10-31T07:06:17.860Z,15.90
2022-10-31T07:09:06.801Z,15.92
2022-10-31T07:11:55.546Z,15.92
2022-10-31T07:14:45.583Z,15.94
2022-10-31T07:17:33.375Z,15.96
2022-10-31T07:20:23.467Z,15.99
2022-10-31T07:23:20.315Z,16.01
2022-10-31T07:26:25.495Z,16.04
2022-10-31T07:29:17.906Z,16.07
2022-10-31T07:32:11.263Z,16.08
2022-10-31T07:35:12.251Z,16.10
2022-10-31T07:38:24.613Z,16.13
2022-10-31T07:41:18.500Z,16.14
2022-10-31T07:44:13.421Z,16.18
2022-10-31T07:47:44.982Z,16.21
2022-10-31T07:50:57.269Z,16.23
2022-10-31T07:54:17.309Z,16.24
2022-10-31T07:57:07.932Z,16.27
2022-10-31T07:59:56.039Z,16.29
2022-10-31T08:02:44.591Z,16.36
2022-10-31T08:05:52.251Z,16.47
2022-10-31T08:08:50.406Z,16.57
2022-10-31T08:11:41.367Z,16.70
2022-10-31T08:14:32.195Z,16.86
2022-10-31T08:17:19.558Z,17.00
2022-10-31T08:20:18.252Z,17.18
2022-10-31T08:23:08.379Z,17.39
2022-10-31T08:25:56.710Z,17.59
2022-10-31T08:28:51.086Z,17.81
2022-10-31T08:31:42.950Z,18.03
2022-10-31T08:34:49.508Z,18.26
2022-10-31T08:37:56.679Z,18.54
2022-10-31T08:40:51.604Z,18.79
2022-10-31T08:43:39.259Z,19.04
2022-10-31T08:46:28.496Z,19.31
2022-10-31T08:49:18.418Z,19.58
2022-10-31T08:52:08.533Z,19.87
2022-10-31T08:55:01.540Z,20.15
2022-10-31T08:58:11.908Z,20.47
2022-10-31T09:01:05.500Z,20.77
2022-10-31T09:03:54.627Z,21.05
2022-10-31T09:07:01.333Z,21.30
2022-10-31T09:09:51.664Z,21.58
2022-10-31T09:12:40.602Z,21.80
2022-10-31T09:15:59.063Z,22.05
2022-10-31T09:18:46.336Z,22.24
2022-10-31T09:21:39.076Z,22.45
2022-10-31T09:24:26.866Z,22.65
2022-10-31T09:27:14.188Z,22.79
2022-10-31T09:30:06.001Z,23.00
2022-10-31T09:32:58.633Z,23.17
2022-10-31T09:35:46.966Z,23.32
2022-10-31T09:38:37.917Z,23.52
2022-10-31T09:41:36.439Z,23.71
2022-10-31T09:44:33.381Z,23.89
2022-10-31T09:47:38.565Z,24.05
2022-10-31T09:50:50.196Z,24.19
2022-10-31T09:54:03.851Z,24.31
2022-10-31T09:56:52.298Z,24.43
2022-10-31T09:59:43.816Z,24.54
2022-10-31T10:02:37.142Z,24.64
2022-10-31T10:05:35.734Z,24.74
2022-10-31T10:08:32.258Z,24.80
2022-10-31T10:11:57.157Z,24.89
2022-10-31T10:15:02.536Z,24.96
2022-10-31T10:18:03.248Z,25.03
2022-10-31T10:21:12.833Z,25.12
2022-10-31T10:24:20.173Z,25.22
2022-10-31T10:27:22.334Z,25.32
2022-10-31T10:30:19.472Z,25.34
2022-10-31T10:33:16.223Z,25.43
2022-10-31T10:36:07.681Z,25.45
2022-10-31T10:39:00.364Z,25.41
2022-10-31T10:42:13.009Z,25.39
2022-10-31T10:45:40.140Z,25.21
2022-10-31T10:48:49.110Z,25.03
2022-10-31T10:52:13.074Z,24.86
2022-10-31T10:55:18.830Z,24.64
2022-10-31T10:58:09.587Z,24.44
2022-10-31T11:00:58.874Z,24.25
2022-10-31T11:03:46.795Z,24.05
2022-10-31T11:06:34.207Z,23.85
2022-10-31T11:09:21.565Z,23.65
2022-10-31T11:12:12.372Z,23.44
2022-10-31T11:15:08.250Z,23.24
2022-10-31T11:17:58.468Z,23.06
2022-10-31T11:20:55.441Z,22.83
2022-10-31T11:23:43.185Z,22.70
2022-10-31T11:26:30.686Z,22.54
2022-10-31T11:29:23.084Z,22.38
2022-10-31T11:32:21.800Z,22.24
2022-10-31T11:35:17.606Z,22.09
2022-10-31T11:38:07.376Z,21.94
2022-10-31T11:40:58.122Z,21.81
2022-10-31T11:43:52.893Z,21.69
2022-10-31T11:46:45.531Z,21.58
2022-10-31T11:49:37.340Z,21.45
2022-10-31T11:52:29.064Z,21.37
2022-10-31T11:55:31.950Z,21.26
2022-10-31T11:58:30.893Z,21.16
2022-10-31T12:01:28.578Z,21.06
2022-10-31T12:04:18.083Z,20.99
2022-10-31T12:07:06.105Z,20.91
2022-10-31T12:09:55.076Z,20.85
2022-10-31T12:13:19.000Z,20.78
2022-10-31T12:16:15.240Z,20.70
2022-10-31T12:19:07.340Z,20.64
2022-10-31T12:22:15.336Z,20.54
2022-10-31T12:25:22.482Z,20.51
2022-10-31T12:28:49.897Z,20.49
2022-10-31T12:32:01.195Z,20.43
2022-10-31T12:35:20.936Z,20.39
2022-10-31T12:38:44.671Z,20.30
2022-10-31T12:41:49.627Z,20.29
2022-10-31T12:45:30.768Z,20.25
2022-10-31T12:49:01.821Z,20.22
2022-10-31T12:52:05.617Z,20.17
2022-10-31T12:55:10.674Z,20.16
2022-10-31T12:58:05.870Z,20.13
2022-10-31T13:01:04.321Z,20.12
2022-10-31T13:04:00.262Z,20.09
2022-10-31T13:06:52.441Z,20.06
2022-10-31T13:09:47.518Z,20.05
2022-10-31T13:12:37.731Z,20.03
2022-10-31T13:15:31.147Z,20.03
2022-10-31T13:18:30.027Z,20.02
2022-10-31T13:21:26.859Z,20.01
2022-10-31T13:24:20.212Z,19.98
2022-10-31T13:27:20.261Z,19.97
2022-10-31T13:30:17.069Z,19.96
2022-10-31T13:33:12.537Z,19.95
2022-10-31T13:36:37.202Z,19.94
2022-10-31T13:39:45.248Z,19.92
2022-10-31T13:42:48.179Z,19.90
2022-10-31T13:45:35.877Z,19.89
2022-10-31T13:48:42.320Z,19.87
2022-10-31T13:51:32.717Z,19.84
2022-10-31T13:54:26.384Z,19.84
2022-10-31T13:57:22.505Z,19.82
2022-10-31T14:00:27.172Z,19.81
2022-10-31T14:03:36.285Z,19.77
2022-10-31T14:06:47.692Z,19.74
2022-10-31T14:09:38.623Z,19.72
2022-10-31T14:12:32.422Z,19.71
2022-10-31T14:15:22.863Z,19.68
2022-10-31T14:18:25.892Z,19.66
2022-10-31T14:21:29.299Z,19.64
2022-10-31T14:24:38.593Z,19.61
2022-10-31T14:27:48.408Z,19.59
2022-10-31T14:30:38.987Z,19.57
2022-10-31T14:33:30.750Z,19.57
2022-10-31T14:36:29.082Z,19.55
2022-10-31T14:39:29.144Z,19.52
2022-10-31T14:42:44.270Z,19.50
2022-10-31T14:45:43.151Z,19.48
2022-10-31T14:48:56.043Z,19.47
2022-10-31T14:51:48.227Z,19.45
2022-10-31T14:54:40.416Z,19.44
2022-10-31T14:57:37.459Z,19.41
2022-10-31T15:00:28.945Z,19.39
2022-10-31T15:03:20.798Z,19.37
2022-10-31T15:06:18.940Z,19.35
2022-10-31T15:09:06.713Z,19.32
2022-10-31T15:11:54.580Z,19.28
2022-10-31T15:14:43.760Z,19.27
2022-10-31T15:17:31.033Z,19.26
2022-10-31T15:20:29.890Z,19.23
2022-10-31T15:23:24.996Z,19.21
2022-10-31T15:26:21.289Z,19.18
2022-10-31T15:29:16.109Z,19.15
2022-10-31T15:32:23.866Z,19.11
2022-10-31T15:35:13.234Z,19.09
2022-10-31T15:38:02.893Z,19.05
2022-10-31T15:40:58.923Z,19.03
2022-10-31T15:43:51.649Z,19.00
2022-10-31T15:46:41.477Z,18.96
2022-10-31T15:49:39.646Z,18.94
2022-10-31T15:52:34.330Z,18.90
2022-10-31T15:55:25.070Z,18.86
2022-10-31T15:58:15.924Z,18.84
2022-10-31T16:01:06.123Z,18.82
2022-10-31T16:04:04.607Z,18.79
2022-10-31T16:07:04.103Z,18.76
2022-10-31T16:09:58.085Z,18.73
2022-10-31T16:12:48.182Z,18.68
2022-10-31T16:15:36.903Z,18.67
2022-10-31T16:18:25.038Z,18.64
2022-10-31T16:21:13.503Z,18.63
2022-10-31T16:24:06.944Z,18.60
2022-10-31T16:27:01.248Z,18.57
2022-10-31T16:29:49.847Z,18.55
2022-10-31T16:32:39.968Z,18.46
2022-10-31T16:35:30.579Z,18.49
2022-10-31T16:38:18.333Z,18.47
2022-10-31T16:41:09.302Z,18.46
2022-10-31T16:43:57.228Z,18.45
2022-10-31T16:46:45.074Z,18.42
2022-10-31T16:49:32.641Z,18.41
2022-10-31T16:52:20.912Z,18.39
2022-10-31T16:55:12.776Z,18.35
2022-10-31T16:58:02.048Z,18.34
2022-10-31T17:00:49.972Z,18.25
2022-10-31T17:03:38.105Z,18.29
2022-10-31T17:06:28.532Z,18.30
2022-10-31T17:09:16.077Z,18.26
2022-10-31T17:12:04.561Z,18.25
2022-10-31T17:14:54.504Z,18.23
2022-10-31T17:17:42.148Z,18.23
2022-10-31T17:20:32.441Z,18.21
2022-10-31T17:23:20.325Z,18.18
2022-10-31T17:26:08.964Z,18.18
2022-10-31T17:28:56.934Z,18.17
2022-10-31T17:31:45.767Z,18.15
2022-10-31T17:34:33.271Z,18.15
2022-10-31T17:37:20.765Z,18.14
2022-10-31T17:40:10.038Z,18.11
2022-10-31T17:42:59.731Z,18.08
2022-10-31T17:45:47.925Z,18.10
2022-10-31T17:48:38.103Z,18.07
2022-10-31T17:51:25.835Z,18.06
2022-10-31T17:54:13.618Z,18.06
2022-10-31T17:57:01.322Z,18.03
2022-10-31T17:59:48.742Z,18.03
2022-10-31T18:02:38.174Z,17.96
2022-10-31T18:05:27.238Z,18.00
2022-10-31T18:08:15.290Z,17.98
2022-10-31T18:11:09.910Z,17.92
2022-10-31T18:13:58.825Z,17.92
2022-10-31T18:16:46.627Z,17.92
2022-10-31T18:19:34.475Z,17.91
2022-10-31T18:22:24.750Z,17.89
2022-10-31T18:25:12.910Z,17.89
2022-10-31T18:28:02.534Z,17.84
2022-10-31T18:30:50.510Z,17.86
2022-10-31T18:33:42.789Z,17.80
2022-10-31T18:36:30.475Z,17.77
2022-10-31T18:39:19.863Z,17.81
2022-10-31T18:43:25.808Z,17.82
2022-10-31T18:46:31.935Z,17.79
2022-10-31T18:49:25.756Z,17.74
2022-10-31T18:52:13.330Z,17.68
2022-10-31T18:55:09.845Z,17.66
2022-10-31T18:57:57.853Z,17.69
2022-10-31T19:00:46.020Z,17.73
2022-10-31T19:03:40.513Z,17.65
2022-10-31T19:06:30.962Z,17.68
2022-10-31T19:09:22.620Z,17.69
2022-10-31T19:12:32.890Z,17.69
2022-10-31T19:15:34.126Z,17.67
2022-10-31T19:18:51.170Z,17.68
2022-10-31T19:22:12.516Z,17.64
2022-10-31T19:25:12.922Z,17.63
2022-10-31T19:28:44.760Z,17.60
2022-10-31T19:31:43.126Z,17.60
2022-10-31T19:38:31.439Z,17.57
2022-10-31T19:41:22.781Z,17.56
2022-10-31T19:44:15.158Z,17.56
2022-10-31T19:47:04.446Z,17.50
2022-10-31T19:49:52.182Z,17.54
2022-10-31T19:52:39.916Z,17.53
2022-10-31T19:55:28.132Z,17.51
2022-10-31T19:58:18.355Z,17.50
2022-10-31T20:01:10.624Z,17.50
2022-10-31T20:04:03.202Z,17.47
2022-10-31T20:06:55.238Z,17.46
2022-10-31T20:09:45.783Z,17.47
2022-10-31T20:12:35.077Z,17.45
2022-10-31T20:15:22.608Z,17.44
2022-10-31T20:18:12.000Z,17.43
2022-10-31T20:21:05.051Z,17.40
2022-10-31T20:23:57.914Z,17.41
2022-10-31T20:26:45.627Z,17.37
2022-10-31T20:29:39.601Z,17.38
2022-10-31T20:32:35.384Z,17.35
2022-10-31T20:35:38.894Z,17.35
2022-10-31T20:38:26.836Z,17.33
2022-10-31T20:41:16.341Z,17.28
2022-10-31T20:44:03.730Z,17.31
2022-10-31T20:46:51.605Z,17.29
2022-10-31T20:49:41.428Z,17.27
2022-10-31T20:53:41.222Z,17.19
2022-10-31T20:56:58.367Z,17.15
2022-10-31T21:00:06.794Z,17.14
2022-10-31T21:02:55.203Z,17.16
2022-10-31T21:05:42.798Z,17.17
2022-10-31T21:08:33.441Z,17.18
2022-10-31T21:11:24.266Z,17.12
2022-10-31T21:14:12.815Z,17.16
2022-10-31T21:17:02.846Z,17.14
2022-10-31T21:19:56.573Z,17.15
2022-10-31T21:22:44.097Z,17.11
2022-10-31T21:25:34.225Z,17.12
2022-10-31T21:28:50.051Z,17.08
2022-10-31T21:31:44.442Z,17.10
2022-10-31T21:34:31.872Z,17.07
2022-10-31T21:37:25.735Z,17.09
2022-10-31T21:40:16.544Z,17.07
2022-10-31T21:43:05.745Z,17.02
2022-10-31T21:45:53.715Z,17.03
2022-10-31T21:48:43.634Z,17.02
2022-10-31T21:51:34.229Z,17.03
2022-10-31T21:54:30.318Z,17.01
2022-10-31T21:57:18.195Z,17.01
2022-10-31T22:00:17.231Z,17.00
2022-10-31T22:03:06.837Z,16.99
2022-10-31T22:05:59.582Z,16.97
2022-10-31T22:08:50.780Z,16.94
2022-10-31T22:11:38.601Z,16.94
2022-10-31T22:14:25.945Z,16.93
2022-10-31T22:17:14.750Z,16.94
2022-10-31T22:20:02.143Z,16.89
2022-10-31T22:22:53.952Z,16.90
2022-10-31T22:25:55.250Z,16.85
2022-10-31T22:28:48.140Z,16.89
2022-10-31T22:31:41.428Z,16.87
2022-10-31T22:34:30.498Z,16.82
2022-10-31T22:37:43.471Z,16.81
2022-10-31T22:40:37.878Z,16.83
2022-10-31T22:43:25.901Z,16.81
2022-10-31T22:46:19.087Z,16.80
2022-10-31T22:49:09.126Z,16.79
2022-10-31T22:51:59.968Z,16.77
2022-10-31T22:54:50.108Z,16.74
2022-10-31T22:57:37.625Z,16.75
2022-10-31T23:00:25.627Z,16.73
2022-10-31T23:03:13.121Z,16.70
2022-10-31T23:06:02.443Z,16.68
2022-10-31T23:09:00.797Z,16.70
2022-10-31T23:12:02.227Z,16.68
2022-10-31T23:14:49.977Z,16.67
2022-10-31T23:18:23.887Z,16.64
2022-10-31T23:21:54.832Z,16.62
2022-10-31T23:24:59.708Z,16.60
2022-10-31T23:27:55.093Z,16.55
2022-10-31T23:30:45.767Z,16.58
2022-10-31T23:33:33.171Z,16.57
2022-10-31T23:36:29.042Z,16.57
2022-10-31T23:39:19.944Z,16.56
2022-10-31T23:42:32.155Z,16.55
2022-10-31T23:45:22.042Z,16.51
2022-10-31T23:48:30.428Z,16.50
2022-10-31T23:51:21.009Z,16.50
2022-10-31T23:54:18.351Z,16.49
2022-10-31T23:57:18.502Z,16.45
